Time;durP1;ratioP1;P1;durP2;ratioP2;P2;SDS_P1;SDS_P2;PMS_P1;PMS_P2;Temp;Humidity;BMP_temperature;BMP_pressure;BME280_temperature;BME280_humidity;BME280_pressure;Samples;Min_cycle;Max_cycle;Signal;HPM_P1;HPM_P2
2023/01/04 00:01:16;;;;;;;29.73;12.60;;;4.40;99.90;;;2.80;100.00;101995.56;5015837;28;20036;-81
2023/01/04 00:03:42;;;;;;;30.10;13.15;;;4.40;99.90;;;2.81;100.00;101999.94;5002848;28;20071;-82
2023/01/04 00:06:12;;;;;;;27.23;14.00;;;4.40;99.90;;;2.84;100.00;101976.53;5015778;28;20092;-81
2023/01/04 00:08:40;;;;;;;31.85;13.60;;;4.40;99.90;;;2.84;100.00;101979.13;4999098;28;20406;-83
2023/01/04 00:11:21;;;;;;;25.92;13.05;;;4.50;99.90;;;2.84;100.00;101968.72;5000204;28;20409;-81
2023/01/04 00:13:50;;;;;;;26.77;13.10;;;4.50;99.90;;;2.87;100.00;101958.31;4997270;28;20022;-81
2023/01/04 00:16:25;;;;;;;25.02;12.88;;;4.50;99.90;;;2.88;100.00;101960.06;4999519;28;20026;-81
2023/01/04 00:18:52;;;;;;;26.40;14.23;;;4.50;99.90;;;2.90;100.00;101953.16;5015150;28;20026;-82
2023/01/04 00:21:27;;;;;;;27.70;13.73;;;4.50;99.90;;;2.92;100.00;101945.34;4999153;28;20047;-81
2023/01/04 00:23:55;;;;;;;24.92;12.82;;;4.50;99.90;;;2.93;100.00;101940.13;5001037;28;21056;-81
2023/01/04 00:26:28;;;;;;;27.85;13.50;;;4.50;99.90;;;2.92;100.00;101940.16;4997136;28;20065;-81
2023/01/04 00:29:04;;;;;;;33.13;14.50;;;4.50;99.90;;;2.91;100.00;101928.84;4998718;28;20028;-82
2023/01/04 00:31:30;;;;;;;;;;;4.60;99.90;;;2.84;100.00;101917.56;5013622;28;20034;-81
2023/01/04 00:33:59;;;;;;;29.25;13.50;;;4.50;99.90;;;2.85;100.00;101914.09;4998508;28;19916;-80
2023/01/04 00:36:26;;;;;;;23.50;13.65;;;4.60;99.90;;;2.87;100.00;101898.47;5002945;28;20510;-81
2023/01/04 00:39:08;;;;;;;26.75;13.90;;;3.70;99.90;;;2.91;100.00;101908.03;5067091;23;20069;-82
2023/01/04 00:42:07;;;;;;;26.42;13.70;;;4.60;99.90;;;2.91;100.00;101902.84;5006487;28;20478;-82
2023/01/04 00:44:34;;;;;;;28.02;14.23;;;4.60;99.90;;;2.93;100.00;101895.03;5003855;28;20113;-82
2023/01/04 00:47:06;;;;;;;26.88;14.23;;;4.60;99.90;;;2.92;100.00;101890.72;5020256;28;20041;-82
2023/01/04 00:49:32;;;;;;;27.13;13.07;;;4.60;99.90;;;2.94;100.00;101894.16;5007926;28;20406;-82
2023/01/04 00:51:58;;;;;;;27.30;13.63;;;4.60;99.90;;;2.95;100.00;101902.00;4988438;28;20030;-82
2023/01/04 00:54:24;;;;;;;36.80;15.60;;;4.60;99.90;;;2.95;100.00;101909.78;4978967;28;20044;-82
2023/01/04 00:56:51;;;;;;;31.20;14.70;;;4.60;99.90;;;2.96;100.00;101903.75;4976756;28;20018;-81
2023/01/04 00:59:25;;;;;;;25.25;14.48;;;4.60;99.90;;;2.97;100.00;101902.88;4975358;28;20491;-81
2023/01/04 01:01:51;;;;;;;28.63;14.23;;;4.60;99.90;;;2.96;100.00;101897.66;5008037;28;20049;-80
2023/01/04 01:04:28;;;;;;;26.92;14.38;;;4.50;99.90;;;2.93;100.00;101901.09;4998993;28;20460;-82
2023/01/04 01:06:54;;;;;;;25.92;15.38;;;4.50;99.90;;;2.90;100.00;101903.72;4980663;28;20048;-82
2023/01/04 01:09:23;;;;;;;36.72;16.23;;;4.50;99.90;;;2.89;100.00;101899.34;5009783;23;20029;-82
2023/01/04 01:11:56;;;;;;;27.88;15.32;;;4.50;99.90;;;2.86;100.00;101899.34;5029560;28;20067;-81
2023/01/04 01:14:24;;;;;;;29.05;15.32;;;4.50;99.90;;;2.84;100.00;101893.28;5045554;28;20017;-82
2023/01/04 01:16:50;;;;;;;31.85;15.65;;;4.50;99.90;;;2.79;100.00;101887.19;5044380;28;20121;-80
2023/01/04 01:19:26;;;;;;;30.48;15.52;;;4.50;99.90;;;2.80;100.00;101887.19;5037096;28;20021;-81
2023/01/04 01:21:52;;;;;;;30.05;16.17;;;4.40;99.90;;;2.81;100.00;101890.69;5037693;28;20028;-81
2023/01/04 01:24:19;;;;;;;30.23;16.27;;;4.40;99.90;;;2.80;100.00;101889.78;5037866;28;20037;-82
2023/01/04 01:26:53;;;;;;;30.95;15.90;;;4.40;99.90;;;2.80;100.00;101878.53;5036251;28;20083;-82
2023/01/04 01:29:19;;;;;;;29.75;15.52;;;4.40;99.90;;;2.81;100.00;101882.88;5033672;28;20089;-81
2023/01/04 01:31:45;;;;;;;30.85;16.73;;;4.40;99.90;;;2.80;100.00;101868.13;5029518;28;20032;-82
2023/01/04 01:34:11;;;;;;;33.22;15.82;;;4.40;99.90;;;2.80;100.00;101862.91;5019543;28;20112;-82
2023/01/04 01:36:44;;;;;;;32.63;16.52;;;4.40;99.90;;;2.81;100.00;101860.31;5025114;28;20025;-81
2023/01/04 01:39:10;;;;;;;31.17;16.95;;;4.40;99.90;;;2.79;100.00;101853.38;5034102;28;20022;-82
2023/01/04 01:41:36;;;;;;;35.60;17.42;;;4.40;99.90;;;2.74;100.00;101847.28;5035488;28;20075;-81
2023/01/04 01:44:44;;;;;;;36.13;16.85;;;4.40;99.90;;;2.73;100.00;101848.16;5043824;28;20112;-82
2023/01/04 01:47:39;;;;;;;28.50;16.30;;;4.30;99.90;;;2.69;100.00;101836.00;5055468;28;20028;-82
2023/01/04 01:50:18;;;;;;;34.28;16.42;;;4.40;99.90;;;2.75;100.00;101830.81;5038819;28;20559;-81
2023/01/04 01:52:43;;;;;;;35.50;15.90;;;4.30;99.90;;;2.78;100.00;101825.63;5027559;28;20032;-82
2023/01/04 01:55:13;;;;;;;35.70;17.48;;;4.40;99.90;;;2.79;100.00;101827.38;5030567;28;20096;-82
2023/01/04 01:57:39;;;;;;;31.30;16.27;;;4.40;99.90;;;2.84;100.00;101810.03;5036476;28;20115;-81
2023/01/04 02:00:15;;;;;;;31.85;16.58;;;4.40;99.90;;;2.87;100.00;101804.81;5036017;28;20025;-82
2023/01/04 02:03:26;;;;;;;29.67;15.70;;;4.40;99.90;;;2.89;100.00;101810.91;5035163;28;20096;-81
2023/01/04 02:05:54;;;;;;;32.58;16.40;;;4.50;99.90;;;2.88;100.00;101796.19;5042615;28;20082;-82
2023/01/04 02:08:31;;;;;;;29.90;16.40;;;4.50;99.90;;;2.91;100.00;101790.09;5040447;28;20045;-83
2023/01/04 02:10:57;;;;;;;30.70;16.95;;;4.50;99.90;;;2.91;100.00;101785.75;5038461;28;20041;-81
2023/01/04 02:17:00;;;;;;;33.03;18.33;;;4.60;99.90;;;3.01;100.00;101776.25;5050288;28;20059;-81
2023/01/04 02:19:43;;;;;;;31.77;16.67;;;4.60;99.90;;;3.07;100.00;101771.91;5040606;28;20044;-81
2023/01/04 02:22:43;;;;;;;30.08;16.55;;;4.70;99.90;;;3.15;100.00;101768.44;5036519;28;20048;-82
2023/01/04 02:25:43;;;;;;;33.42;16.45;;;4.70;99.90;;;3.15;100.00;101771.06;5051716;28;20485;-82
2023/01/04 02:28:55;;;;;;;37.53;16.15;;;4.70;99.90;;;3.16;100.00;101762.41;5032665;28;20057;-82
2023/01/04 02:31:55;;;;;;;31.00;15.60;;;4.80;99.90;;;3.18;100.00;101751.13;5038846;28;20045;-82
2023/01/04 02:35:05;;;;;;;30.67;16.80;;;4.80;99.90;;;3.22;100.00;101739.84;5053188;28;20033;-82
2023/01/04 02:37:46;;;;;;;32.47;15.93;;;4.80;99.90;;;3.23;100.00;101738.09;5027195;28;20029;-82
2023/01/04 02:40:45;;;;;;;35.85;16.88;;;4.80;99.90;;;3.24;100.00;101732.00;5035805;28;20044;-82
2023/01/04 02:46:38;;;;;;;32.63;15.30;;;4.80;99.90;;;3.26;100.00;101720.75;5055606;28;20040;-84
2023/01/04 02:51:58;;;;;;;36.63;17.05;;;4.90;99.90;;;3.31;100.00;101707.72;5036033;28;20409;-82
2023/01/04 02:54:34;;;;;;;31.20;16.75;;;5.00;99.90;;;3.36;100.00;101681.69;5040862;28;20093;-83
2023/01/04 02:57:20;;;;;;;;;;;4.90;99.90;;;3.33;100.00;101684.31;5037001;28;20048;-83
2023/01/04 03:06:14;;;;;;;30.75;16.48;;;5.00;99.90;;;3.34;100.00;101668.66;5055603;28;20411;-83
2023/01/04 03:07:00;;;;;;;28.50;16.25;;;5.00;99.90;;;3.37;100.00;101640.03;5042018;28;20082;-83
2023/01/04 03:09:34;;;;;;;29.97;15.33;;;5.00;99.90;;;3.40;100.00;101632.22;4975140;28;20545;-83
2023/01/04 03:15:09;;;;;;;27.55;16.00;;;5.00;99.90;;;3.47;100.00;101623.50;5050958;28;20060;-82
2023/01/04 03:17:47;;;;;;;29.38;15.75;;;5.10;99.90;;;3.49;100.00;101610.47;5027422;28;20032;-83
2023/01/04 03:20:16;;;;;;;35.78;16.10;;;5.10;99.90;;;3.49;100.00;101600.94;5023244;28;20082;-84
2023/01/04 03:37:48;;;;;;;33.75;15.68;;;5.10;99.90;;;3.45;100.00;101535.84;5034506;28;20044;-82
2023/01/04 03:49:51;;;;;;;26.90;15.05;;;5.10;99.90;;;3.45;100.00;101499.41;5034618;28;20052;-82
2023/01/04 03:52:18;;;;;;;26.25;15.95;;;5.10;99.90;;;3.45;100.00;101495.06;5050536;28;20037;-83
2023/01/04 03:54:50;;;;;;;26.02;14.68;;;5.10;99.90;;;3.45;100.00;101495.06;5037686;28;20032;-83
2023/01/04 03:57:16;;;;;;;25.95;14.32;;;5.20;99.90;;;3.47;100.00;101490.69;5018723;28;20041;-82
2023/01/04 04:00:02;;;;;;;32.20;14.50;;;5.10;99.90;;;3.51;100.00;101483.75;5034735;28;20032;-83
2023/01/04 04:02:34;;;;;;;24.53;13.33;;;5.10;99.90;;;3.45;100.00;101478.56;5033693;28;20024;-82
2023/01/04 04:10:31;;;;;;;24.92;13.27;;;5.10;99.90;;;3.39;100.00;101443.03;5037969;28;20095;-82
2023/01/04 04:13:00;;;;;;;21.60;13.10;;;5.10;99.90;;;3.40;100.00;101430.88;5021049;28;20071;-83
2023/01/04 04:15:25;;;;;;;25.98;13.60;;;5.10;99.90;;;3.39;100.00;101431.75;5030894;28;20037;-82
2023/01/04 04:17:51;;;;;;;21.45;12.45;;;5.10;99.90;;;3.37;100.00;101423.97;5051110;28;20043;-84
2023/01/04 04:20:17;;;;;;;22.58;13.07;;;5.10;99.90;;;3.41;100.00;101420.47;5037593;28;20024;-82
2023/01/04 04:22:43;;;;;;;26.90;13.45;;;5.10;99.90;;;3.43;100.00;101421.28;5031175;28;20085;-83
2023/01/04 04:25:15;;;;;;;26.35;12.85;;;5.10;99.90;;;3.45;100.00;101421.28;5031885;28;20605;-82
2023/01/04 04:27:40;;;;;;;24.10;12.68;;;5.10;99.90;;;3.46;100.00;101413.47;5035091;28;20065;-83
2023/01/04 04:30:07;;;;;;;22.10;12.82;;;5.20;99.90;;;3.49;100.00;101420.41;5053318;28;20032;-82
2023/01/04 04:32:33;;;;;;;30.58;13.18;;;5.10;99.90;;;3.51;100.00;101420.41;5035740;28;20029;-82
2023/01/04 04:34:58;;;;;;;31.38;13.02;;;5.10;99.90;;;3.49;100.00;101416.06;5032402;28;20086;-83
2023/01/04 04:37:29;;;;;;;22.30;12.10;;;5.20;99.90;;;3.53;100.00;101410.84;5031487;28;20125;-82
2023/01/04 04:39:55;;;;;;;23.73;12.32;;;5.10;99.90;;;3.46;100.00;101394.41;5018067;28;20029;-83
2023/01/04 04:42:23;;;;;;;22.58;11.80;;;5.10;99.90;;;3.45;100.00;101382.25;5037409;28;20035;-83
2023/01/04 04:44:49;;;;;;;21.30;11.88;;;5.10;99.90;;;3.47;100.00;101381.34;5038087;28;20028;-82
2023/01/04 04:47:15;;;;;;;18.83;10.65;;;5.10;99.90;;;3.47;100.00;101373.53;5035911;28;20560;-83
2023/01/04 04:49:49;;;;;;;19.63;11.52;;;5.20;99.90;;;3.47;100.00;101372.69;5016283;28;20112;-84
2023/01/04 04:52:15;;;;;;;21.45;11.48;;;5.10;99.90;;;3.47;100.00;101362.25;5025336;28;20040;-83
2023/01/04 04:54:41;;;;;;;25.63;10.88;;;5.10;99.90;;;3.51;100.00;101368.31;5039874;28;20084;-83
2023/01/04 04:57:07;;;;;;;22.85;11.70;;;5.20;99.90;;;3.53;100.00;101345.75;5027068;28;20133;-83
2023/01/04 04:59:38;;;;;;;21.45;11.20;;;5.20;99.90;;;3.53;100.00;101346.59;5051322;28;20067;-82
2023/01/04 05:02:04;;;;;;;20.63;10.40;;;5.20;99.90;;;3.57;100.00;101339.63;5050288;28;20460;-84
2023/01/04 05:04:30;;;;;;;21.20;10.63;;;5.20;99.90;;;3.59;100.00;101330.06;5036884;28;20059;-84
2023/01/04 05:06:55;;;;;;;21.98;10.98;;;5.20;99.90;;;3.57;100.00;101321.41;5019328;28;20048;-82
2023/01/04 05:09:24;;;;;;;20.77;10.57;;;5.20;99.90;;;3.57;100.00;101305.78;5031632;23;20061;-84
2023/01/04 05:14:42;;;;;;;18.50;9.77;;;5.20;99.90;;;3.56;100.00;101281.47;4996411;28;20048;-83
2023/01/04 05:17:07;;;;;;;18.00;9.50;;;5.20;99.90;;;3.57;100.00;101292.78;4999222;28;20117;-81
2023/01/04 05:19:38;;;;;;;16.83;9.43;;;5.20;99.90;;;3.61;100.00;101277.09;4982097;28;20061;-82
2023/01/04 05:22:04;;;;;;;16.10;8.27;;;5.20;99.90;;;3.62;100.00;101273.59;4999092;28;20022;-83
2023/01/04 05:24:30;;;;;;;16.38;9.15;;;5.30;99.90;;;3.65;100.00;101270.09;4998458;28;20068;-82
2023/01/04 05:26:55;;;;;;;14.30;8.02;;;5.30;99.90;;;3.69;100.00;101259.66;4996549;28;20122;-81
2023/01/04 05:32:13;;;;;;;18.70;7.88;;;5.30;99.90;;;3.76;100.00;101243.94;5016750;28;20187;-83
2023/01/04 05:34:38;;;;;;;19.65;8.02;;;5.30;99.90;;;3.77;100.00;101232.66;5016187;28;20387;-82
2023/01/04 05:37:04;;;;;;;17.17;8.13;;;5.40;99.90;;;3.78;100.00;101227.44;4980595;28;20022;-83
2023/01/04 05:39:30;;;;;;;17.70;7.18;;;5.40;99.90;;;3.80;100.00;101217.88;4995769;28;20021;-82
2023/01/04 05:44:42;;;;;;;15.65;8.15;;;5.40;99.90;;;3.88;100.00;101215.19;5000125;28;20048;-83
2023/01/04 05:47:08;;;;;;;13.52;7.70;;;5.40;99.90;;;3.90;100.00;101206.47;4995489;28;20052;-83
2023/01/04 05:49:34;;;;;;;16.45;7.50;;;5.50;99.90;;;3.90;100.00;101200.38;4980018;28;20057;-84
2023/01/04 05:52:00;;;;;;;16.45;8.00;;;5.50;99.90;;;3.95;100.00;101201.19;4996843;28;20042;-83
2023/01/04 05:54:25;;;;;;;16.15;7.97;;;5.50;99.90;;;3.96;100.00;101194.25;4997028;28;20494;-83
2023/01/04 05:56:51;;;;;;;20.15;7.85;;;5.50;99.90;;;3.95;100.00;101182.94;4998225;28;20057;-83
2023/01/04 05:59:22;;;;;;;12.25;7.45;;;5.50;99.90;;;3.99;100.00;101184.63;4998095;28;20116;-81
2023/01/04 06:01:47;;;;;;;14.50;7.20;;;5.50;99.90;;;3.99;100.00;101173.38;4995232;28;20029;-83
2023/01/04 06:04:13;;;;;;;12.65;6.68;;;5.50;99.90;;;3.97;100.00;101169.91;4996293;28;20037;-82
2023/01/04 06:06:39;;;;;;;16.42;7.93;;;5.60;99.90;;;4.00;100.00;101160.31;4980201;28;20034;-82
2023/01/04 06:09:05;;;;;;;16.30;6.95;;;5.60;99.90;;;4.04;100.00;101156.81;4979117;28;20038;-83
2023/01/04 06:11:30;;;;;;;13.40;6.80;;;5.60;99.90;;;4.03;100.00;101147.25;4979660;28;20101;-83
2023/01/04 06:14:05;;;;;;;11.80;6.95;;;5.60;99.90;;;4.00;100.00;101139.47;4976990;28;20057;-83
2023/01/04 06:16:31;;;;;;;13.57;7.45;;;5.60;99.90;;;3.97;100.00;101126.47;5016165;28;20691;-82
2023/01/04 06:18:57;;;;;;;19.27;6.90;;;5.60;99.90;;;3.98;100.00;101115.19;4982048;28;20025;-81
2023/01/04 06:21:24;;;;;;;14.55;6.75;;;5.60;99.90;;;3.98;100.00;101107.38;4997695;28;20034;-84
2023/01/04 06:23:55;;;;;;;11.35;6.55;;;5.60;99.90;;;3.98;100.00;101094.34;4992410;28;20066;-83
2023/01/04 06:26:21;;;;;;;14.00;6.63;;;5.60;99.90;;;3.98;100.00;101096.09;4996709;28;20030;-83
2023/01/04 06:28:47;;;;;;;13.70;7.10;;;5.60;99.90;;;3.99;100.00;101090.84;4978648;28;20494;-83
2023/01/04 06:31:13;;;;;;;11.40;6.80;;;5.60;99.90;;;3.98;100.00;101083.06;4995456;28;20042;-83
2023/01/04 06:33:39;;;;;;;12.88;6.53;;;5.60;99.90;;;3.97;100.00;101066.53;4993691;28;20149;-81
2023/01/04 06:36:14;;;;;;;13.32;6.82;;;5.60;99.90;;;4.01;100.00;101069.97;4976779;28;20113;-83
2023/01/04 06:38:40;;;;;;;12.38;6.25;;;5.60;99.90;;;4.00;100.00;101065.66;4997622;28;20018;-83
2023/01/04 06:41:06;;;;;;;18.33;6.68;;;5.60;99.90;;;4.02;100.00;101054.34;4994439;28;20172;-83
2023/01/04 06:43:32;;;;;;;15.85;7.47;;;5.60;99.90;;;4.06;100.00;101047.31;4977472;28;20121;-82
2023/01/04 06:46:03;;;;;;;12.98;6.45;;;5.60;99.90;;;4.10;100.00;101056.81;4977750;28;20065;-84
2023/01/04 06:48:29;;;;;;;12.23;6.40;;;5.60;99.90;;;4.09;100.00;101044.69;4994922;28;21197;-82
2023/01/04 06:50:55;;;;;;;20.50;6.97;;;5.70;99.90;;;4.17;100.00;101037.63;5016268;28;20068;-83
2023/01/04 06:53:20;;;;;;;14.63;5.78;;;5.70;99.90;;;4.18;100.00;101028.03;4995425;28;20065;-82
2023/01/04 06:55:46;;;;;;;12.77;6.35;;;5.70;99.90;;;4.18;100.00;101023.69;4996005;28;20110;-83
2023/01/04 06:58:12;;;;;;;15.25;6.53;;;5.80;99.90;;;4.19;100.00;101012.38;4976653;28;20027;-84
2023/01/04 07:00:47;;;;;;;16.48;6.78;;;5.80;99.90;;;4.20;100.00;101006.28;4994285;28;20639;-83
2023/01/04 07:03:13;;;;;;;13.20;6.28;;;5.80;99.90;;;4.23;100.00;100990.59;5012353;28;20054;-83
2023/01/04 07:05:38;;;;;;;17.95;6.85;;;5.80;99.90;;;4.24;100.00;100996.66;4977032;28;20031;-82
2023/01/04 07:08:09;;;;;;;15.48;6.43;;;5.80;99.90;;;4.24;100.00;100992.31;4994947;28;20503;-81
2023/01/04 07:10:35;;;;;;;16.08;5.78;;;5.80;99.90;;;4.22;100.00;100981.03;4976332;28;20026;-82
2023/01/04 07:13:01;;;;;;;15.40;6.35;;;5.80;99.90;;;4.25;100.00;100973.16;4996446;28;20034;-82
2023/01/04 07:15:27;;;;;;;18.55;6.25;;;5.80;99.90;;;4.24;100.00;100970.59;4994998;28;20029;-82
2023/01/04 07:17:53;;;;;;;11.85;5.78;;;5.80;99.90;;;4.25;100.00;100959.28;4978816;28;20090;-83
2023/01/04 07:20:19;;;;;;;12.73;5.78;;;5.80;99.90;;;4.28;100.00;100951.41;4993174;28;20064;-81
2023/01/04 07:22:49;;;;;;;16.75;6.00;;;5.80;99.90;;;4.28;100.00;100939.25;4989745;28;20026;-82
2023/01/04 07:25:15;;;;;;;19.33;5.93;;;5.80;99.90;;;4.30;100.00;100934.00;4991755;28;20034;-82
2023/01/04 07:27:41;;;;;;;16.48;5.65;;;5.90;99.90;;;4.36;100.00;100933.03;5010113;28;20053;-81
2023/01/04 07:30:20;;;;;;;13.38;5.57;;;5.90;99.90;;;4.38;100.00;100911.25;4995111;28;20042;-82
2023/01/04 07:32:46;;;;;;;13.65;5.25;;;5.90;99.90;;;4.44;100.00;100920.72;5011197;28;20089;-81
2023/01/04 07:35:12;;;;;;;15.20;5.20;;;5.90;99.90;;;4.47;100.00;100913.72;5008649;28;20058;-81
2023/01/04 07:37:37;;;;;;;14.05;5.30;;;6.00;99.90;;;4.49;100.00;100916.25;4978527;28;20032;-81
2023/01/04 07:40:08;;;;;;;11.88;5.00;;;6.00;99.90;;;4.50;100.00;100911.03;4995056;28;20030;-82
2023/01/04 07:42:34;;;;;;;10.35;4.90;;;6.00;99.90;;;4.53;100.00;100907.50;4994172;28;20034;-82
2023/01/04 07:44:59;;;;;;;18.73;5.60;;;6.00;99.90;;;4.57;100.00;100905.69;4993605;28;20049;-82
2023/01/04 07:47:27;;;;;;;14.40;5.10;;;6.00;99.90;;;4.54;100.00;100901.41;4993654;28;20084;-82
2023/01/04 07:49:53;;;;;;;14.13;5.93;;;6.10;99.90;;;4.59;100.00;100899.56;4994573;28;20034;-82
2023/01/04 07:52:19;;;;;;;13.68;5.28;;;6.10;99.90;;;4.58;100.00;100890.03;5000754;28;20042;-81
2023/01/04 07:54:50;;;;;;;14.07;5.78;;;6.10;99.90;;;4.58;100.00;100884.81;4996135;28;20117;-82
2023/01/04 07:57:16;;;;;;;16.23;6.35;;;6.10;99.90;;;4.57;100.00;100866.59;5010801;28;20023;-81
2023/01/04 07:59:42;;;;;;;15.60;5.60;;;6.10;99.90;;;4.59;100.00;100870.03;5012411;28;20049;-82
2023/01/04 08:02:12;;;;;;;17.63;5.75;;;6.10;99.90;;;4.61;100.00;100869.09;4988334;28;20108;-82
2023/01/04 08:04:42;;;;;;;12.65;4.93;;;6.10;99.90;;;4.58;100.00;100858.75;4993250;28;20119;-82
2023/01/04 08:07:08;;;;;;;12.85;5.60;;;6.10;99.90;;;4.61;100.00;100857.81;4992683;28;20057;-82
2023/01/04 08:09:34;;;;;;;13.57;5.00;;;6.10;99.90;;;4.58;100.00;100857.84;4993142;28;20091;-83
2023/01/04 08:12:00;;;;;;;13.65;5.47;;;6.10;99.90;;;4.62;100.00;100843.88;4975332;28;20075;-80
2023/01/04 08:14:25;;;;;;;13.48;5.22;;;6.20;99.90;;;4.62;100.00;100836.94;4993757;28;20037;-82
2023/01/04 08:16:51;;;;;;;12.88;5.05;;;6.10;99.90;;;4.61;100.00;100840.41;4978053;28;20026;-82
2023/01/04 08:19:27;;;;;;;17.85;5.43;;;6.20;99.90;;;4.64;100.00;100829.91;4993482;28;20517;-82
2023/01/04 08:21:53;;;;;;;15.20;5.45;;;6.20;99.90;;;4.65;100.00;100821.19;5009914;28;20065;-82
2023/01/04 08:24:19;;;;;;;12.32;5.70;;;6.20;99.90;;;4.69;100.00;100816.78;5001387;28;20034;-82
2023/01/04 08:26:50;;;;;;;11.38;4.88;;;6.20;99.90;;;4.68;100.00;100818.53;4985757;28;20093;-82
2023/01/04 08:29:16;;;;;;;12.82;5.85;;;6.20;99.90;;;4.68;100.00;100815.91;4980664;28;20036;-81
2023/01/04 08:31:42;;;;;;;14.32;5.05;;;6.20;99.90;;;4.72;100.00;100806.28;5003329;28;20045;-83
2023/01/04 08:34:09;;;;;;;13.93;5.20;;;6.20;99.90;;;4.75;100.00;100784.47;4997068;28;20081;-83
2023/01/04 08:36:46;;;;;;;15.10;4.90;;;6.30;99.90;;;4.83;100.00;100793.00;4982179;28;20029;-82
2023/01/04 08:39:12;;;;;;;11.45;5.05;;;6.30;99.90;;;4.82;100.00;100784.34;4998902;28;20034;-83
2023/01/04 08:41:51;;;;;;;10.23;4.30;;;6.30;99.90;;;4.85;100.00;100767.75;4996379;28;20043;-82
2023/01/04 08:44:33;;;;;;;11.52;4.53;;;6.40;99.90;;;4.85;100.00;100771.19;4996602;28;20041;-82
2023/01/04 08:46:59;;;;;;;15.90;4.70;;;6.40;99.90;;;4.87;100.00;100755.53;4997267;28;20030;-82
2023/01/04 08:49:30;;;;;;;9.20;3.88;;;6.40;99.90;;;4.93;100.00;100763.22;4979395;28;20053;-83
2023/01/04 08:51:55;;;;;;;9.40;4.18;;;6.50;99.90;;;4.97;100.00;100744.00;4976826;28;20673;-83
2023/01/04 08:54:21;;;;;;;10.63;3.65;;;6.50;99.90;;;5.02;100.00;100738.66;4992551;28;20038;-83
2023/01/04 08:56:47;;;;;;;7.20;3.88;;;6.50;99.90;;;5.05;100.00;100720.31;4973683;28;20125;-82
2023/01/04 08:59:13;;;;;;;15.30;3.88;;;6.60;99.90;;;5.07;100.00;100711.53;5014321;28;20030;-82
2023/01/04 09:01:45;;;;;;;9.50;3.67;;;6.60;99.90;;;5.14;100.00;100717.50;4975414;28;20422;-83
2023/01/04 09:04:14;;;;;;;7.45;3.30;;;6.70;99.90;;;5.16;100.00;100714.81;4990807;28;20042;-83
2023/01/04 09:06:41;;;;;;;7.75;2.90;;;6.70;99.90;;;5.13;100.00;100721.00;4992327;28;20060;-82
2023/01/04 09:09:07;;;;;;;9.38;3.30;;;6.70;99.90;;;5.14;100.00;100699.22;4970088;28;20042;-81
2023/01/04 09:11:40;;;;;;;10.32;3.50;;;6.70;99.90;;;5.22;100.00;100686.81;4973484;28;20046;-83
2023/01/04 09:14:09;;;;;;;9.43;2.83;;;6.70;99.90;;;5.27;100.00;100678.88;4990564;28;20034;-83
2023/01/04 09:16:45;;;;;;;11.65;3.13;;;6.80;99.90;;;5.25;100.00;100675.47;4991464;28;20039;-83
2023/01/04 09:19:11;;;;;;;7.53;2.80;;;6.80;99.90;;;5.26;100.00;100674.56;4993065;28;20049;-83
2023/01/04 09:21:37;;;;;;;7.75;2.85;;;6.80;99.90;;;5.26;100.00;100657.13;4990076;28;20046;-82
2023/01/04 09:24:03;;;;;;;6.13;3.08;;;6.80;99.90;;;5.27;100.00;100645.81;4989201;28;20034;-83
2023/01/04 09:26:35;;;;;;;8.02;3.13;;;6.80;99.90;;;5.31;100.00;100642.22;4988008;28;20037;-82
2023/01/04 09:29:03;;;;;;;5.45;2.80;;;6.90;99.90;;;5.39;100.00;100630.72;5009189;28;20041;-83
2023/01/04 09:31:34;;;;;;;7.30;2.63;;;6.90;99.90;;;5.42;100.00;100618.44;4990621;28;20053;-82
2023/01/04 09:34:02;;;;;;;8.00;2.53;;;7.00;99.90;;;5.41;100.00;100623.69;4974151;28;20085;-83
2023/01/04 09:36:28;;;;;;;5.10;2.53;;;6.90;99.90;;;5.40;100.00;100622.84;4973925;28;20655;-83
2023/01/04 09:38:55;;;;;;;7.78;2.40;;;7.00;99.90;;;5.47;100.00;100613.09;4992337;28;20045;-83
2023/01/04 09:41:36;;;;;;;7.25;2.30;;;7.00;99.90;;;5.42;100.00;100628.88;4974923;28;20034;-82
2023/01/04 09:44:34;;;;;;;5.55;2.17;;;7.00;99.90;;;5.40;100.00;100622.84;4991045;28;20034;-83
2023/01/04 09:47:39;;;;;;;5.93;2.58;;;7.00;99.90;;;5.51;100.00;100591.22;5006161;28;20469;-82
2023/01/04 09:50:36;;;;;;;3.95;2.08;;;7.00;99.90;;;5.43;100.00;100616.69;4992167;28;20093;-83
2023/01/04 09:53:29;;;;;;;3.95;1.92;;;7.00;99.90;;;5.38;100.00;100614.19;4988682;28;20098;-83
2023/01/04 09:56:34;;;;;;;6.47;2.00;;;7.00;99.90;;;5.43;100.00;100604.47;5010379;28;20038;-83
2023/01/04 09:59:15;;;;;;;3.70;1.83;;;7.10;99.90;;;5.49;100.00;100599.09;4988013;28;20030;-83
2023/01/04 10:02:03;;;;;;;3.97;1.95;;;7.10;99.90;;;5.54;100.00;100593.72;4971359;28;20036;-83
2023/01/04 10:04:50;;;;;;;4.05;2.20;;;7.10;99.90;;;5.55;100.00;100590.22;5006416;28;20120;-83
2023/01/04 10:07:41;;;;;;;7.75;1.77;;;7.10;99.90;;;5.59;100.00;100580.53;5007615;28;20132;-84
2023/01/04 10:10:40;;;;;;;3.65;1.58;;;7.10;99.90;;;5.60;100.00;100579.66;4997903;28;20251;-83
2023/01/04 10:13:46;;;;;;;4.35;2.10;;;7.20;99.90;;;5.64;100.00;100566.47;4991938;28;20026;-84
2023/01/04 10:16:59;;;;;;;3.72;1.63;;;7.20;99.90;;;5.68;100.00;100554.13;4991346;28;20037;-82
2023/01/04 10:20:29;;;;;;;3.33;1.15;;;7.20;99.90;;;5.74;100.00;100543.50;4975730;28;20039;-84
2023/01/04 10:23:21;;;;;;;1.67;1.25;;;7.30;99.90;;;5.80;100.00;100532.88;5011456;28;20030;-82
2023/01/04 10:26:02;;;;;;;3.25;1.08;;;7.40;99.90;;;5.87;100.00;100526.56;5012535;28;20038;-83
2023/01/04 10:29:25;;;;;;;1.58;0.93;;;7.40;99.90;;;5.90;100.00;100516.03;4981508;28;20033;-82
2023/01/04 10:32:47;;;;;;;2.95;1.20;;;7.50;99.90;;;5.93;100.00;100508.09;5013006;28;20031;-83
2023/01/04 10:35:26;;;;;;;1.60;1.08;;;7.50;99.90;;;5.98;100.00;100494.91;4971259;28;20043;-84
2023/01/04 10:38:36;;;;;;;3.30;1.27;;;7.50;99.90;;;5.98;100.00;100494.91;4979635;28;20429;-84
2023/01/04 10:41:14;;;;;;;4.13;1.17;;;7.50;99.90;;;6.00;100.00;100485.25;5001251;28;20054;-83
2023/01/04 10:44:06;;;;;;;3.03;0.98;;;7.60;99.90;;;6.05;100.00;100485.16;5009605;28;20197;-82
2023/01/04 10:46:49;;;;;;;4.50;1.20;;;7.60;99.90;;;6.09;100.00;100458.84;4993318;28;20065;-83
2023/01/04 10:50:01;;;;;;;1.75;0.80;;;7.60;99.90;;;6.14;100.00;100453.47;5013210;28;20030;-83
2023/01/04 10:52:51;;;;;;;4.85;1.10;;;7.70;99.90;;;6.17;100.00;100455.97;5008647;28;20030;-83
2023/01/04 10:55:54;;;;;;;3.08;0.77;;;7.70;99.90;;;6.23;100.00;100457.53;5016561;28;20058;-83
2023/01/04 10:58:55;;;;;;;3.08;0.85;;;7.70;99.90;;;6.27;100.00;100441.69;4982972;28;20041;-83
2023/01/04 11:01:36;;;;;;;4.47;1.00;;;7.80;99.90;;;6.29;100.00;100436.44;5009800;28;20038;-83
2023/01/04 11:04:25;;;;;;;1.80;0.88;;;7.80;99.90;;;6.36;100.00;100432.69;4992273;28;20038;-83
2023/01/04 11:07:21;;;;;;;4.20;0.90;;;7.90;99.90;;;6.41;100.00;100425.53;5012042;28;20029;-84
2023/01/04 11:10:00;;;;;;;1.75;0.77;;;7.90;99.90;;;6.43;100.00;100413.25;4992051;28;20088;-82
2023/01/04 11:12:28;;;;;;;2.15;0.90;;;8.00;99.90;;;6.46;100.00;100418.41;4977726;28;20053;-84
2023/01/04 11:14:54;;;;;;;2.03;0.90;;;8.00;99.90;;;6.52;100.00;100409.47;4977707;28;20026;-83
2023/01/04 11:17:22;;;;;;;2.05;0.85;;;8.00;99.90;;;6.55;100.00;100412.84;4992805;28;20036;-83
2023/01/04 11:19:55;;;;;;;2.15;0.80;;;8.10;99.90;;;6.58;100.00;100412.72;4992707;28;20482;-82
2023/01/04 11:23:08;;;;;;;1.15;0.80;;;8.10;99.90;;;6.61;100.00;100396.09;4991836;28;20057;-84
2023/01/04 11:25:47;;;;;;;1.67;1.02;;;8.20;99.90;;;6.67;100.00;100385.38;4989040;28;20051;-81
2023/01/04 11:28:50;;;;;;;1.33;0.90;;;8.20;99.90;;;6.70;100.00;100385.28;4971631;28;20038;-83
2023/01/04 11:31:56;;;;;;;5.97;1.20;;;8.20;99.90;;;6.73;100.00;100385.16;4988663;28;20042;-84
2023/01/04 11:34:48;;;;;;;1.55;1.05;;;8.30;99.90;;;6.74;100.00;100365.94;4993518;28;20076;-84
2023/01/04 11:37:46;;;;;;;1.55;0.82;;;8.30;99.90;;;6.80;100.00;100367.47;5009045;28;20030;-83